Time;durP1;ratioP1;P1;durP2;ratioP2;P2;SDS_P1;SDS_P2;PMS_P1;PMS_P2;Temp;Humidity;BMP_temperature;BMP_pressure;BME280_temperature;BME280_humidity;BME280_pressure;Samples;Min_cycle;Max_cycle;Signal;HPM_P1;HPM_P2
2023/10/28 00:03:07;;;;;;;12.63;7.37;;;6.70;1.00;;;;;;9820668;30;20251;-78
2023/10/28 00:08:28;;;;;;;8.30;6.03;;;6.70;99.90;;;;;;9819736;30;20370;-78
2023/10/28 00:13:50;;;;;;;7.77;5.80;;;6.70;1.00;;;;;;9819760;30;20206;-79
2023/10/28 00:19:11;;;;;;;7.07;5.10;;;6.70;1.00;;;;;;9820429;30;20521;-79
2023/10/28 00:24:32;;;;;;;7.47;5.67;;;6.70;1.00;;;;;;9819955;30;20239;-80
2023/10/28 00:29:53;;;;;;;6.27;4.83;;;6.70;99.90;;;;;;9819883;30;20203;-78
2023/10/28 00:35:14;;;;;;;4.73;4.33;;;6.70;99.90;;;;;;9819000;30;20264;-79
2023/10/28 00:40:36;;;;;;;5.60;4.67;;;6.60;1.00;;;;;;9806187;30;20209;-80
2023/10/28 00:45:59;;;;;;;5.70;4.40;;;6.70;99.90;;;;;;9818720;30;20262;-79
2023/10/28 00:51:20;;;;;;;5.20;4.20;;;6.80;99.90;;;;;;9805879;30;20440;-80
2023/10/28 00:56:42;;;;;;;4.73;3.97;;;6.70;99.90;;;;;;9817860;30;20210;-77
2023/10/28 01:02:03;;;;;;;4.80;4.30;;;6.80;99.90;;;;;;9816844;30;20253;-78
2023/10/28 01:07:24;;;;;;;4.90;4.23;;;6.80;70.50;;;;;;9817750;30;20286;-78
2023/10/28 01:12:47;;;;;;;7.03;3.73;;;6.80;1.00;;;;;;9817851;30;20278;-77
2023/10/28 01:18:10;;;;;;;4.23;3.70;;;6.70;70.90;;;;;;9817801;30;20231;-78
2023/10/28 01:23:31;;;;;;;3.30;3.00;;;6.70;99.90;;;;;;9818441;30;20258;-78
2023/10/28 01:28:54;;;;;;;5.97;3.80;;;6.70;15.20;;;;;;9818523;30;20430;-79
2023/10/28 01:34:15;;;;;;;3.60;3.30;;;6.90;46.80;;;;;;9817454;30;20395;-78
2023/10/28 01:39:37;;;;;;;3.87;3.10;;;6.90;99.90;;;;;;9817189;30;20257;-78
2023/10/28 01:44:58;;;;;;;5.33;3.70;;;6.80;9.30;;;;;;9817923;30;20240;-79
2023/10/28 01:50:21;;;;;;;5.10;4.17;;;7.00;21.00;;;;;;9816361;30;20486;-79
2023/10/28 01:55:44;;;;;;;5.17;3.77;;;6.90;1.00;;;;;;9817195;30;20275;-79
2023/10/28 02:01:05;;;;;;;5.00;3.30;;;6.90;1.00;;;;;;9810571;30;20248;-78
2023/10/28 02:06:26;;;;;;;5.30;4.03;;;6.80;99.90;;;;;;9817684;30;20208;-78
2023/10/28 02:11:52;;;;;;;4.17;3.60;;;6.70;1.00;;;;;;9816899;30;20216;-80
2023/10/28 02:17:13;;;;;;;6.13;3.50;;;6.70;1.00;;;;;;9817123;30;20278;-78
2023/10/28 02:22:34;;;;;;;4.10;3.30;;;6.70;1.00;;;;;;9816486;30;20409;-79
2023/10/28 02:27:56;;;;;;;5.70;3.77;;;6.70;1.00;;;;;;9816384;30;20197;-79
2023/10/28 02:33:17;;;;;;;5.17;3.77;;;6.60;1.00;;;;;;9807507;30;20210;-79
2023/10/28 02:38:40;;;;;;;7.13;4.43;;;6.60;1.00;;;;;;9824143;30;20507;-79
2023/10/28 02:44:03;;;;;;;4.90;3.73;;;6.60;1.00;;;;;;9823743;30;20232;-78
2023/10/28 02:49:24;;;;;;;3.73;3.10;;;6.70;1.00;;;;;;9810122;30;20198;-78
2023/10/28 02:54:45;;;;;;;4.87;3.40;;;6.70;1.00;;;;;;9809931;30;20260;-77
2023/10/28 03:00:08;;;;;;;5.07;3.63;;;6.70;1.00;;;;;;9821494;30;20455;-78
2023/10/28 03:05:30;;;;;;;6.17;4.17;;;6.70;1.00;;;;;;9821857;30;20274;-79
2023/10/28 03:10:51;;;;;;;6.37;4.13;;;6.60;1.00;;;;;;9823023;30;20260;-78
2023/10/28 03:16:12;;;;;;;7.20;4.50;;;6.60;1.00;;;;;;9822555;30;20199;-79
2023/10/28 03:21:33;;;;;;;6.63;4.27;;;6.60;1.00;;;;;;9785273;30;20239;-78
2023/10/28 03:26:55;;;;;;;8.47;5.23;;;6.60;1.00;;;;;;9785977;30;20264;-78
2023/10/28 03:32:16;;;;;;;9.03;5.73;;;6.60;1.00;;;;;;9793792;30;20268;-78
2023/10/28 03:37:37;;;;;;;11.27;7.77;;;6.50;1.00;;;;;;9822143;30;20206;-79
2023/10/28 03:42:59;;;;;;;18.37;11.13;;;6.50;1.00;;;;;;9820230;30;20242;-79
2023/10/28 03:48:20;;;;;;;16.53;10.17;;;6.50;1.00;;;;;;9821665;30;20203;-79
2023/10/28 03:53:41;;;;;;;15.80;10.17;;;6.50;1.00;;;;;;9821598;30;20494;-79
2023/10/28 03:59:02;;;;;;;13.63;10.87;;;6.60;1.00;;;;;;9819396;30;20203;-78
2023/10/28 04:04:24;;;;;;;14.23;8.93;;;6.60;1.00;;;;;;9819496;30;20559;-79
2023/10/28 04:09:45;;;;;;;9.27;7.50;;;6.60;1.00;;;;;;9820858;30;20513;-78
2023/10/28 04:15:06;;;;;;;26.80;14.60;;;6.50;1.00;;;;;;9820401;30;20462;-79
2023/10/28 04:20:27;;;;;;;53.53;28.10;;;6.50;32.30;;;;;;9784446;30;20203;-78
2023/10/28 04:25:48;;;;;;;56.07;30.27;;;6.50;99.90;;;;;;9784290;30;20234;-78
2023/10/28 04:31:10;;;;;;;37.37;20.50;;;6.40;99.90;;;;;;9792039;30;20199;-79
2023/10/28 04:36:31;;;;;;;19.10;10.33;;;6.50;97.50;;;;;;9820138;30;20203;-79
2023/10/28 04:41:52;;;;;;;14.87;9.13;;;6.40;99.90;;;;;;9819426;30;20231;-78
2023/10/28 04:47:13;;;;;;;16.33;7.70;;;6.40;95.80;;;;;;9818513;30;20200;-78
2023/10/28 04:52:35;;;;;;;11.60;8.70;;;6.50;55.80;;;;;;9818455;30;20287;-79
2023/10/28 04:57:56;;;;;;;17.53;8.17;;;6.40;99.90;;;;;;9818131;30;20275;-78
2023/10/28 05:03:17;;;;;;;9.43;6.20;;;6.40;1.00;;;;;;9823271;30;20305;-79
2023/10/28 05:08:40;;;;;;;11.20;5.23;;;6.40;25.10;;;;;;9818932;30;20225;-79
2023/10/28 05:14:01;;;;;;;6.57;5.40;;;6.40;96.80;;;;;;9818828;30;20217;-79
2023/10/28 05:19:23;;;;;;;9.80;6.50;;;6.40;92.90;;;;;;9782591;30;20233;-78
2023/10/28 05:24:44;;;;;;;13.30;6.20;;;6.40;99.90;;;;;;9782238;30;20231;-79
2023/10/28 05:30:06;;;;;;;14.17;7.67;;;6.40;99.90;;;;;;9789924;30;20388;-78
2023/10/28 05:35:27;;;;;;;13.37;8.00;;;6.40;90.80;;;;;;9818248;30;20242;-80
2023/10/28 05:40:49;;;;;;;15.60;9.40;;;6.40;99.90;;;;;;9818564;30;20215;-78
2023/10/28 05:46:13;;;;;;;19.30;10.50;;;6.50;1.00;;;;;;9818259;30;20230;-79
2023/10/28 05:51:36;;;;;;;12.80;8.00;;;6.50;1.00;;;;;;9818274;30;20228;-78
2023/10/28 05:56:58;;;;;;;8.17;5.90;;;6.40;1.00;;;;;;9817621;30;20293;-78
2023/10/28 06:02:19;;;;;;;10.83;6.47;;;6.40;81.90;;;;;;9824263;30;20247;-78
2023/10/28 06:07:47;;;;;;;15.87;10.03;;;6.40;93.10;;;;;;9802896;30;20363;-78
2023/10/28 06:13:08;;;;;;;18.40;10.60;;;6.50;20.00;;;;;;9824773;30;20204;-78
2023/10/28 06:18:30;;;;;;;29.70;15.50;;;6.50;1.00;;;;;;9824875;30;20208;-79
2023/10/28 06:23:51;;;;;;;19.33;9.97;;;6.50;1.00;;;;;;9824329;30;20484;-78
2023/10/28 06:29:12;;;;;;;13.53;8.53;;;6.50;1.00;;;;;;9823313;30;20196;-79
2023/10/28 06:34:34;;;;;;;11.50;7.00;;;6.50;1.00;;;;;;9824015;30;20210;-77
2023/10/28 06:39:55;;;;;;;6.90;5.53;;;6.60;1.00;;;;;;9823790;30;20203;-78
2023/10/28 06:45:17;;;;;;;8.60;6.37;;;6.60;1.00;;;;;;9822663;30;20559;-78
2023/10/28 06:50:38;;;;;;;8.90;5.83;;;6.60;99.90;;;;;;9823687;30;20207;-79
2023/10/28 06:56:03;;;;;;;6.17;5.30;;;6.60;99.90;;;;;;9832164;30;20215;-78
2023/10/28 07:01:26;;;;;;;6.93;4.73;;;6.60;1.00;;;;;;9819682;30;20250;-78
2023/10/28 07:06:47;;;;;;;6.80;5.30;;;6.70;1.00;;;;;;9822934;30;20277;-80
2023/10/28 07:12:08;;;;;;;10.13;5.20;;;6.70;1.00;;;;;;9822915;30;20388;-79
2023/10/28 07:17:29;;;;;;;6.10;4.50;;;6.80;99.90;;;;;;9784870;30;20238;-79
2023/10/28 07:22:51;;;;;;;7.80;5.00;;;6.70;1.00;;;;;;9797540;30;20238;-77
2023/10/28 07:28:14;;;;;;;4.93;4.43;;;6.80;1.00;;;;;;9805970;30;20489;-79
2023/10/28 07:33:35;;;;;;;7.13;5.10;;;6.90;1.00;;;;;;9822039;30;20210;-78
2023/10/28 07:38:56;;;;;;;8.13;5.33;;;7.00;1.00;;;;;;9820513;30;20392;-78
2023/10/28 07:44:18;;;;;;;8.67;5.67;;;7.10;1.00;;;;;;9821682;30;20243;-78
2023/10/28 07:49:39;;;;;;;6.73;5.13;;;7.20;99.90;;;;;;9821617;30;20306;-78
2023/10/28 07:55:01;;;;;;;11.47;7.20;;;7.20;1.00;;;;;;9820581;30;20240;-79
2023/10/28 08:00:23;;;;;;;7.53;5.50;;;7.30;99.90;;;;;;9820390;30;20318;-78
2023/10/28 08:05:44;;;;;;;12.27;6.97;;;7.30;1.00;;;;;;9820706;30;20420;-79
2023/10/28 08:11:08;;;;;;;6.90;5.50;;;7.30;1.00;;;;;;9819874;30;20200;-77
2023/10/28 08:16:29;;;;;;;6.70;5.20;;;7.30;99.90;;;;;;9783738;30;20204;-76
2023/10/28 08:21:51;;;;;;;5.50;4.50;;;7.30;91.40;;;;;;9783292;30;20277;-78
2023/10/28 08:27:12;;;;;;;6.30;4.93;;;7.40;99.90;;;;;;9792605;30;20229;-78
2023/10/28 08:32:34;;;;;;;8.10;5.57;;;7.40;52.50;;;;;;9818426;30;20431;-79
2023/10/28 08:37:55;;;;;;;11.27;7.37;;;7.50;1.00;;;;;;9820132;30;20287;-79
2023/10/28 08:43:17;;;;;;;9.43;6.30;;;7.70;1.00;;;;;;9819582;30;20251;-78
2023/10/28 08:48:38;;;;;;;11.87;7.80;;;7.80;99.90;;;;;;9819721;30;20204;-79
2023/10/28 08:54:04;;;;;;;12.83;7.73;;;8.10;1.00;;;;;;9819536;30;20204;-79
2023/10/28 08:59:26;;;;;;;9.37;6.37;;;8.40;1.00;;;;;;9818468;30;20273;-79
2023/10/28 09:04:48;;;;;;;10.43;5.87;;;8.60;62.30;;;;;;9818956;30;20290;-79
2023/10/28 09:10:10;;;;;;;8.10;6.10;;;8.90;1.00;;;;;;9818918;30;20298;-78
2023/10/28 09:15:31;;;;;;;8.13;5.80;;;9.30;1.00;;;;;;9782775;30;20285;-79
2023/10/28 09:20:52;;;;;;;6.13;4.20;;;9.70;99.90;;;;;;9782362;30;20211;-78
2023/10/28 09:26:13;;;;;;;4.67;3.67;;;10.00;1.00;;;;;;9790911;30;20444;-79
2023/10/28 09:31:34;;;;;;;5.10;3.90;;;10.00;1.00;;;;;;9817942;30;20202;-79
2023/10/28 09:36:57;;;;;;;5.03;3.87;;;10.00;1.00;;;;;;9818930;30;20387;-79
2023/10/28 09:42:18;;;;;;;3.53;2.70;;;10.10;1.00;;;;;;9820946;30;20297;-78
2023/10/28 09:47:57;;;;;;;4.43;2.80;;;10.30;1.00;;;;;;9817019;30;20248;-77
2023/10/28 09:53:36;;;;;;;4.13;2.40;;;10.30;99.90;;;;;;9817963;30;20500;-77
2023/10/28 09:59:05;;;;;;;5.70;2.40;;;10.40;99.90;;;;;;9815259;30;20242;-77
2023/10/28 10:04:40;;;;;;;3.83;2.60;;;10.40;99.90;;;;;;9816788;30;20252;-76
2023/10/28 10:10:16;;;;;;;2.93;1.93;;;10.20;99.90;;;;;;9817824;30;20383;-78
2023/10/28 10:15:42;;;;;;;4.43;2.80;;;10.00;99.90;;;;;;9817828;30;20208;-78
2023/10/28 10:21:10;;;;;;;16.37;9.10;;;9.70;99.90;;;;;;9817709;30;20206;-78
2023/10/28 10:26:33;;;;;;;8.60;5.07;;;9.50;99.90;;;;;;9817419;30;20250;-76
2023/10/28 10:31:55;;;;;;;9.90;4.63;;;9.30;99.90;;;;;;9804353;30;20416;-76
2023/10/28 10:37:23;;;;;;;7.47;3.87;;;9.30;99.90;;;;;;9791685;30;20224;-76
2023/10/28 10:42:45;;;;;;;5.03;2.90;;;9.10;99.90;;;;;;9816213;30;20221;-80
2023/10/28 10:48:09;;;;;;;7.10;3.67;;;9.10;99.90;;;;;;9803333;30;20205;-78
2023/10/28 10:53:41;;;;;;;7.00;3.40;;;9.10;99.90;;;;;;9819615;30;20205;-79
2023/10/28 10:59:02;;;;;;;4.17;2.90;;;9.00;1.00;;;;;;9822126;30;20209;-77
2023/10/28 11:04:31;;;;;;;3.90;2.87;;;8.90;1.00;;;;;;9822942;30;20324;-79
2023/10/28 11:09:52;;;;;;;6.33;3.20;;;8.90;1.00;;;;;;9823039;30;20204;-79
2023/10/28 11:15:13;;;;;;;5.63;3.70;;;8.80;1.00;;;;;;9822446;30;20346;-80
2023/10/28 11:20:34;;;;;;;9.93;4.83;;;8.70;1.00;;;;;;9822758;30;20221;-80
2023/10/28 11:25:55;;;;;;;7.97;3.60;;;8.70;1.00;;;;;;9822351;30;20237;-79
2023/10/28 11:31:20;;;;;;;7.13;4.10;;;8.60;1.00;;;;;;9821059;30;20212;-79
2023/10/28 11:36:41;;;;;;;6.93;4.10;;;8.60;1.00;;;;;;9821088;30;20209;-80
2023/10/28 11:42:17;;;;;;;6.80;3.83;;;8.50;1.00;;;;;;9821539;30;20262;-79
2023/10/28 11:47:38;;;;;;;6.80;4.27;;;8.50;99.90;;;;;;9820415;30;20524;-79
2023/10/28 11:53:00;;;;;;;10.20;5.67;;;8.60;99.90;;;;;;9821767;30;20210;-78
2023/10/28 11:58:24;;;;;;;6.10;4.07;;;8.60;6.10;;;;;;9820340;30;20242;-78
2023/10/28 12:03:45;;;;;;;6.30;3.33;;;8.60;8.90;;;;;;9785774;30;20293;-81
2023/10/28 12:09:14;;;;;;;5.90;3.57;;;8.50;1.00;;;;;;9813065;30;20210;-79
2023/10/28 12:14:35;;;;;;;12.70;7.07;;;8.60;81.70;;;;;;9820412;30;20250;-80
2023/10/28 12:19:57;;;;;;;14.57;7.97;;;8.60;86.20;;;;;;9820636;30;20566;-80
2023/10/28 12:25:18;;;;;;;16.47;8.57;;;8.60;1.00;;;;;;9820062;30;20239;-76
2023/10/28 12:30:40;;;;;;;17.07;9.73;;;8.60;1.00;;;;;;9818783;30;20393;-79
2023/10/28 12:36:01;;;;;;;21.07;10.87;;;8.60;10.20;;;;;;9819138;30;20398;-77
2023/10/28 12:41:22;;;;;;;24.27;11.73;;;8.60;48.20;;;;;;9819704;30;20198;-78
2023/10/28 12:46:43;;;;;;;21.87;9.97;;;8.60;98.20;;;;;;9819481;30;20531;-77
2023/10/28 12:52:04;;;;;;;20.27;8.53;;;8.50;37.20;;;;;;9819487;30;20211;-77
2023/10/28 12:57:26;;;;;;;14.93;7.13;;;8.50;96.80;;;;;;9805242;30;20260;-79
2023/10/28 13:02:49;;;;;;;21.20;10.17;;;8.50;1.00;;;;;;9810794;30;20259;-79
2023/10/28 13:08:11;;;;;;;33.93;13.63;;;8.40;1.00;;;;;;9805724;30;20209;-80
2023/10/28 13:13:33;;;;;;;33.07;14.17;;;8.40;1.00;;;;;;9818804;30;20225;-79
2023/10/28 13:18:54;;;;;;;24.70;11.50;;;8.50;1.00;;;;;;9818597;30;20300;-78
2023/10/28 13:24:15;;;;;;;21.77;10.47;;;8.40;1.00;;;;;;9805436;30;20252;-80
2023/10/28 13:29:37;;;;;;;17.13;9.30;;;8.40;1.00;;;;;;9818509;30;20295;-78
2023/10/28 13:34:58;;;;;;;20.03;9.37;;;8.40;1.00;;;;;;9817638;30;20315;-78
2023/10/28 13:40:19;;;;;;;19.30;10.17;;;8.50;1.00;;;;;;9818115;30;20373;-80
2023/10/28 13:45:41;;;;;;;24.20;12.67;;;8.40;1.00;;;;;;9818120;30;20238;-79
2023/10/28 13:51:02;;;;;;;30.40;16.17;;;8.40;1.00;;;;;;9817138;30;20231;-80
2023/10/28 13:56:23;;;;;;;25.10;13.83;;;8.40;1.00;;;;;;9817751;30;20488;-80
2023/10/28 14:01:44;;;;;;;18.23;10.13;;;8.40;1.00;;;;;;9808965;30;20252;-79
2023/10/28 14:07:06;;;;;;;17.80;10.00;;;8.40;1.00;;;;;;9817737;30;20234;-78
2023/10/28 14:12:28;;;;;;;22.07;11.93;;;8.40;69.80;;;;;;9816906;30;20490;-79
2023/10/28 14:17:49;;;;;;;16.10;9.90;;;8.50;99.80;;;;;;9817535;30;20232;-76
2023/10/28 14:23:10;;;;;;;17.30;10.13;;;8.40;1.00;;;;;;9817515;30;20241;-80
2023/10/28 14:28:32;;;;;;;10.43;7.37;;;8.30;3.40;;;;;;9820614;30;20213;-77
2023/10/28 14:33:53;;;;;;;10.33;6.47;;;8.30;32.50;;;;;;9824276;30;20200;-75
2023/10/28 14:39:14;;;;;;;9.43;5.60;;;8.20;97.50;;;;;;9824266;30;20211;-79
2023/10/28 14:44:36;;;;;;;8.27;5.13;;;8.10;99.90;;;;;;9824297;30;20232;-81
2023/10/28 14:49:57;;;;;;;11.40;6.77;;;8.10;99.90;;;;;;9822940;30;20197;-80
2023/10/28 14:55:19;;;;;;;12.50;7.33;;;8.10;99.90;;;;;;9822717;30;20206;-81
2023/10/28 15:00:41;;;;;;;12.60;7.80;;;8.00;1.00;;;;;;9822559;30;20383;-79
2023/10/28 15:06:04;;;;;;;15.33;9.43;;;8.00;1.00;;;;;;9822964;30;20236;-79
2023/10/28 15:11:25;;;;;;;13.80;9.40;;;8.00;1.00;;;;;;9822235;30;20207;-79
2023/10/28 15:16:48;;;;;;;16.87;11.00;;;8.00;1.00;;;;;;9821598;30;20225;-79
2023/10/28 15:22:09;;;;;;;29.23;15.23;;;8.00;1.00;;;;;;9822591;30;20470;-79
2023/10/28 15:27:34;;;;;;;25.57;15.70;;;8.00;1.00;;;;;;9822475;30;20473;-79
2023/10/28 15:32:55;;;;;;;29.30;15.63;;;8.00;1.00;;;;;;9822380;30;20200;-78
2023/10/28 15:38:16;;;;;;;32.00;15.40;;;8.00;1.00;;;;;;9821392;30;20217;-79
2023/10/28 15:43:41;;;;;;;27.27;14.30;;;8.00;1.00;;;;;;9820678;30;20237;-78
2023/10/28 15:49:02;;;;;;;28.27;14.83;;;8.00;1.00;;;;;;9821455;30;20204;-79
2023/10/28 15:54:23;;;;;;;29.83;13.90;;;7.90;1.00;;;;;;9821443;30;20207;-79
2023/10/28 15:59:45;;;;;;;28.93;12.40;;;7.90;1.00;;;;;;9818069;30;20541;-80
2023/10/28 16:05:07;;;;;;;26.63;13.57;;;7.80;1.00;;;;;;9821084;30;20233;-79
2023/10/28 16:10:28;;;;;;;25.10;13.03;;;7.80;1.00;;;;;;9785100;30;20206;-79
2023/10/28 16:15:50;;;;;;;24.80;12.13;;;7.80;1.00;;;;;;9798138;30;20232;-79
2023/10/28 16:21:11;;;;;;;24.00;12.87;;;7.80;1.00;;;;;;9819235;30;20202;-79
2023/10/28 16:26:32;;;;;;;22.73;13.37;;;7.80;1.00;;;;;;9819724;30;20237;-78
2023/10/28 16:31:54;;;;;;;21.53;13.30;;;7.80;1.00;;;;;;9820155;30;20253;-79
2023/10/28 16:37:15;;;;;;;18.83;11.73;;;7.80;1.00;;;;;;9819656;30;20205;-78
2023/10/28 16:42:36;;;;;;;22.97;13.70;;;7.80;1.00;;;;;;9784230;30;20379;-80
2023/10/28 16:47:57;;;;;;;24.17;13.03;;;7.80;1.00;;;;;;9783490;30;20210;-79
2023/10/28 16:53:18;;;;;;;25.03;14.53;;;7.80;1.00;;;;;;9798112;30;20207;-78
2023/10/28 16:58:39;;;;;;;18.57;11.80;;;7.70;1.00;;;;;;9802865;30;20241;-78
2023/10/28 17:04:01;;;;;;;18.43;11.47;;;7.80;1.00;;;;;;9808410;30;20593;-77
2023/10/28 17:09:24;;;;;;;18.50;11.17;;;7.70;1.00;;;;;;9816772;30;20277;-78
2023/10/28 17:14:46;;;;;;;22.83;13.83;;;7.70;1.00;;;;;;9819098;30;20228;-79
2023/10/28 17:20:08;;;;;;;22.10;14.03;;;7.70;1.00;;;;;;9818184;30;20393;-78
2023/10/28 17:25:30;;;;;;;19.43;12.27;;;7.70;1.00;;;;;;9818939;30;20603;-79
2023/10/28 17:30:52;;;;;;;28.63;14.57;;;7.70;1.00;;;;;;9818470;30;20195;-79
2023/10/28 17:36:13;;;;;;;21.13;12.93;;;7.70;1.00;;;;;;9818412;30;20214;-79
2023/10/28 17:41:34;;;;;;;24.20;12.97;;;7.70;1.00;;;;;;9818457;30;20207;-79
2023/10/28 17:46:56;;;;;;;24.93;12.37;;;7.70;1.00;;;;;;9817669;30;20458;-80
2023/10/28 17:52:17;;;;;;;31.73;15.63;;;7.80;1.00;;;;;;9818281;30;20225;-79
2023/10/28 17:57:38;;;;;;;42.03;23.43;;;7.70;1.00;;;;;;9817516;30;20568;-79
2023/10/28 18:02:59;;;;;;;38.23;24.13;;;7.70;1.00;;;;;;9811817;30;20246;-79
2023/10/28 18:08:22;;;;;;;40.37;20.23;;;7.70;1.00;;;;;;9825411;30;20211;-79
2023/10/28 18:13:45;;;;;;;36.73;19.10;;;7.70;1.00;;;;;;9825074;30;20230;-77
2023/10/28 18:19:06;;;;;;;33.07;17.87;;;7.70;1.00;;;;;;9824997;30;20232;-78
2023/10/28 18:24:27;;;;;;;34.93;19.13;;;7.70;1.00;;;;;;9823954;30;20278;-77
2023/10/28 18:29:49;;;;;;;36.60;19.67;;;7.70;99.90;;;;;;9810875;30;20586;-79
2023/10/28 18:35:10;;;;;;;43.90;21.03;;;7.70;99.90;;;;;;9824877;30;20204;-79
2023/10/28 18:40:31;;;;;;;24.73;14.67;;;7.60;99.90;;;;;;9824314;30;20232;-79
2023/10/28 18:45:53;;;;;;;26.03;15.70;;;7.60;99.90;;;;;;9823943;30;20307;-79
2023/10/28 18:51:14;;;;;;;29.60;19.20;;;7.50;1.00;;;;;;9823078;30;20421;-79
2023/10/28 18:56:35;;;;;;;36.43;23.50;;;7.40;49.10;;;;;;9821982;30;20204;-78
2023/10/28 19:01:57;;;;;;;27.40;17.63;;;7.40;1.00;;;;;;9812249;30;20248;-79
2023/10/28 19:07:18;;;;;;;25.60;14.67;;;7.40;1.00;;;;;;9823113;30;20300;-79
2023/10/28 19:12:39;;;;;;;27.90;17.60;;;7.40;99.90;;;;;;9821837;30;20231;-79
2023/10/28 19:18:00;;;;;;;21.90;13.43;;;7.40;1.00;;;;;;9822936;30;20221;-78
2023/10/28 19:23:22;;;;;;;27.77;16.43;;;7.30;71.20;;;;;;9822413;30;20229;-80
2023/10/28 19:28:43;;;;;;;32.67;16.27;;;7.40;1.00;;;;;;9822091;30;20207;-79
2023/10/28 19:34:04;;;;;;;26.70;13.77;;;7.30;1.00;;;;;;9822368;30;20666;-79
2023/10/28 19:39:25;;;;;;;33.07;12.33;;;7.20;99.90;;;;;;9821006;30;20207;-79
2023/10/28 19:44:46;;;;;;;10.10;7.10;;;7.20;1.00;;;;;;9784430;30;20245;-78
2023/10/28 19:50:08;;;;;;;24.63;12.27;;;7.10;1.00;;;;;;9784671;30;20261;-79
2023/10/28 19:55:29;;;;;;;35.10;15.23;;;7.10;99.90;;;;;;9795002;30;20456;-79
2023/10/28 20:00:51;;;;;;;15.03;9.80;;;7.10;99.90;;;;;;9806649;30;20247;-78
2023/10/28 20:06:14;;;;;;;13.87;10.73;;;7.00;99.90;;;;;;9821237;30;20227;-79
2023/10/28 20:11:36;;;;;;;16.63;12.67;;;6.90;1.00;;;;;;9819595;30;20203;-79
2023/10/28 20:16:57;;;;;;;24.37;13.90;;;6.90;99.90;;;;;;9819957;30;20202;-77
2023/10/28 20:22:19;;;;;;;17.70;12.30;;;6.90;99.90;;;;;;9820581;30;20258;-77
2023/10/28 20:27:40;;;;;;;16.33;11.97;;;6.80;99.90;;;;;;9819027;30;20240;-78
2023/10/28 20:33:02;;;;;;;17.97;11.57;;;6.80;1.00;;;;;;9820415;30;20206;-79
2023/10/28 20:38:24;;;;;;;19.23;11.40;;;6.80;99.90;;;;;;9819264;30;20298;-79
2023/10/28 20:43:45;;;;;;;16.57;10.87;;;6.80;99.90;;;;;;9784209;30;20230;-79
2023/10/28 20:49:06;;;;;;;16.40;11.30;;;6.80;99.90;;;;;;9783893;30;20205;-79
2023/10/28 20:54:27;;;;;;;15.20;10.33;;;6.70;1.30;;;;;;9792650;30;20202;-80
2023/10/28 20:59:48;;;;;;;17.47;11.53;;;6.70;1.00;;;;;;9818999;30;20447;-77
2023/10/28 21:05:10;;;;;;;15.20;9.73;;;6.70;99.90;;;;;;9819107;30;20257;-78
2023/10/28 21:10:31;;;;;;;12.23;9.50;;;6.70;1.00;;;;;;9801512;30;20256;-79
2023/10/28 21:15:53;;;;;;;14.47;9.30;;;;;;;;;;9819020;30;20393;-79
2023/10/28 21:21:15;;;;;;;15.37;9.50;;;;;;;;;;9818863;30;20286;-79
2023/10/28 21:26:36;;;;;;;16.00;9.13;;;;;;;;;;9818653;30;20231;-78
2023/10/28 21:31:57;;;;;;;13.90;9.00;;;6.50;99.90;;;;;;9818491;30;20222;-76
2023/10/28 21:37:18;;;;;;;13.23;8.43;;;6.60;1.00;;;;;;9817655;30;20208;-76
2023/10/28 21:42:40;;;;;;;9.67;7.70;;;6.70;1.00;;;;;;9818541;30;20199;-77
2023/10/28 21:48:01;;;;;;;14.73;8.27;;;6.60;1.00;;;;;;9818187;30;20305;-79
2023/10/28 21:53:23;;;;;;;12.87;9.53;;;6.60;1.00;;;;;;9816905;30;20209;-79
2023/10/28 21:58:44;;;;;;;13.23;9.40;;;6.50;99.90;;;;;;9817709;30;20211;-79
2023/10/28 22:04:05;;;;;;;13.53;8.70;;;6.60;1.00;;;;;;9780637;30;20507;-78
2023/10/28 22:09:26;;;;;;;11.63;8.07;;;6.50;1.00;;;;;;9812022;30;20206;-79
2023/10/28 22:14:48;;;;;;;13.37;8.57;;;6.40;1.00;;;;;;9818640;30;20237;-77
2023/10/28 22:20:11;;;;;;;11.30;7.90;;;6.40;1.00;;;;;;9818082;30;20251;-77
2023/10/28 22:25:32;;;;;;;12.17;8.43;;;6.30;1.00;;;;;;9816702;30;20238;-76
2023/10/28 22:30:54;;;;;;;10.63;8.03;;;6.30;99.90;;;;;;9818015;30;20210;-78
2023/10/28 22:36:15;;;;;;;10.87;8.20;;;6.40;1.00;;;;;;9817777;30;20209;-78
2023/10/28 22:41:36;;;;;;;12.27;7.90;;;6.30;99.90;;;;;;9780996;30;20222;-79
2023/10/28 22:46:57;;;;;;;12.27;8.53;;;6.30;99.90;;;;;;9781967;30;20250;-78
2023/10/28 22:52:18;;;;;;;11.87;7.67;;;6.30;1.00;;;;;;9796131;30;20322;-79
2023/10/28 22:57:40;;;;;;;7.07;6.13;;;6.40;1.00;;;;;;9823876;30;20278;-77
2023/10/28 23:03:06;;;;;;;6.80;5.67;;;6.50;99.90;;;;;;9787130;30;20240;-78
2023/10/28 23:08:27;;;;;;;7.53;5.10;;;6.50;1.00;;;;;;9810488;30;20276;-80
2023/10/28 23:13:49;;;;;;;8.53;5.20;;;6.40;40.20;;;;;;9823148;30;20551;-77
2023/10/28 23:19:09;;;;;;;6.80;4.40;;;6.40;1.00;;;;;;9821787;30;20299;-79
2023/10/28 23:24:31;;;;;;;7.43;4.83;;;6.50;1.00;;;;;;9822721;30;20223;-79
2023/10/28 23:29:52;;;;;;;9.10;4.70;;;6.50;99.90;;;;;;9822425;30;20203;-78
2023/10/28 23:35:14;;;;;;;11.07;5.07;;;;;;;;;;9822164;30;20214;-79
2023/10/28 23:40:37;;;;;;;6.47;4.47;;;6.50;99.90;;;;;;9822293;30;20270;-79
2023/10/28 23:45:58;;;;;;;6.50;4.40;;;6.50;99.90;;;;;;9821745;30;20235;-80
2023/10/28 23:51:19;;;;;;;7.83;4.87;;;6.50;99.90;;;;;;9821575;30;20199;-79
2023/10/28 23:56:40;;;;;;;6.70;4.87;;;6.50;99.90;;;;;;9821505;30;20207;-78
